createdAt,value
2023-03-27T00:00:02.488Z,409.00
2023-03-27T00:04:02.751Z,408.00
2023-03-27T00:08:02.906Z,407.00
2023-03-27T00:12:03.148Z,413.00
2023-03-27T00:16:03.356Z,406.00
2023-03-27T00:20:03.537Z,412.00
2023-03-27T00:24:03.881Z,410.00
2023-03-27T00:28:03.709Z,410.00
2023-03-27T00:32:03.683Z,408.00
2023-03-27T00:36:03.842Z,406.00
2023-03-27T00:40:03.647Z,404.00
2023-03-27T00:44:03.565Z,399.00
2023-03-27T00:48:03.614Z,402.00
2023-03-27T00:52:03.488Z,400.00
2023-03-27T00:56:03.471Z,404.00
2023-03-27T01:00:03.411Z,398.00
2023-03-27T01:04:03.399Z,399.00
2023-03-27T01:08:03.486Z,400.00
2023-03-27T01:12:03.673Z,403.00
2023-03-27T01:16:03.888Z,402.00
2023-03-27T01:20:04.066Z,400.00
2023-03-27T01:24:04.280Z,402.00
2023-03-27T01:28:04.479Z,403.00
2023-03-27T01:32:04.685Z,398.00
2023-03-27T01:36:04.937Z,394.00
2023-03-27T01:40:04.863Z,400.00
2023-03-27T01:44:04.834Z,393.00
2023-03-27T01:48:04.857Z,378.00
2023-03-27T01:52:04.763Z,387.00
2023-03-27T01:56:04.719Z,391.00
2023-03-27T02:00:17.283Z,393.00
2023-03-27T02:04:05.646Z,391.00
2023-03-27T02:08:04.614Z,394.00
2023-03-27T02:12:04.861Z,389.00
2023-03-27T02:16:04.884Z,391.00
2023-03-27T02:20:04.756Z,390.00
2023-03-27T02:24:04.747Z,395.00
2023-03-27T02:28:04.688Z,393.00
2023-03-27T02:32:04.723Z,395.00
2023-03-27T02:36:04.694Z,390.00
2023-03-27T02:40:04.583Z,386.00
2023-03-27T02:44:04.544Z,389.00
2023-03-27T02:48:04.557Z,389.00
2023-03-27T02:52:04.539Z,392.00
2023-03-27T02:56:04.767Z,392.00
2023-03-27T03:00:05.026Z,389.00
2023-03-27T03:04:04.986Z,384.00
2023-03-27T03:08:04.991Z,387.00
2023-03-27T03:12:04.895Z,387.00
2023-03-27T03:16:04.827Z,385.00
2023-03-27T03:20:04.823Z,385.00
2023-03-27T03:24:04.775Z,387.00
2023-03-27T03:28:04.735Z,382.00
2023-03-27T03:32:04.722Z,382.00
2023-03-27T03:36:04.724Z,386.00
2023-03-27T03:40:04.667Z,385.00
2023-03-27T03:44:04.735Z,384.00
2023-03-27T03:48:04.762Z,384.00
2023-03-27T03:52:05.098Z,383.00
2023-03-27T03:56:04.627Z,383.00
2023-03-27T04:00:04.599Z,383.00
2023-03-27T04:04:04.571Z,385.00
2023-03-27T04:08:04.582Z,383.00
2023-03-27T04:12:04.498Z,382.00
2023-03-27T04:16:04.536Z,380.00
2023-03-27T04:20:04.430Z,381.00
2023-03-27T04:24:04.530Z,380.00
2023-03-27T04:28:04.736Z,383.00
2023-03-27T04:32:04.955Z,386.00
2023-03-27T04:36:06.619Z,383.00
2023-03-27T04:40:05.368Z,385.00
2023-03-27T04:44:05.356Z,391.00
2023-03-27T04:48:05.407Z,389.00
2023-03-27T04:52:05.279Z,387.00
2023-03-27T04:56:05.241Z,384.00
2023-03-27T05:00:05.189Z,387.00
2023-03-27T05:04:05.225Z,388.00
2023-03-27T05:08:05.119Z,387.00
2023-03-27T05:12:05.104Z,389.00
2023-03-27T05:16:05.119Z,388.00
2023-03-27T05:20:05.022Z,385.00
2023-03-27T05:24:05.205Z,390.00
2023-03-27T05:28:05.221Z,390.00
2023-03-27T05:32:05.137Z,399.00
2023-03-27T05:36:05.069Z,472.00
2023-03-27T05:40:05.059Z,532.00
2023-03-27T05:44:05.022Z,596.00
2023-03-27T05:48:05.085Z,473.00
2023-03-27T05:52:04.918Z,444.00
2023-03-27T05:56:04.881Z,486.00
2023-03-27T06:00:04.869Z,483.00
2023-03-27T06:04:04.932Z,517.00
2023-03-27T06:08:04.802Z,514.00
2023-03-27T06:12:04.767Z,564.00
2023-03-27T06:16:04.887Z,572.00
2023-03-27T06:20:04.915Z,588.00
2023-03-27T06:24:04.894Z,600.00
2023-03-27T06:28:05.437Z,620.00
2023-03-27T06:32:05.044Z,639.00
2023-03-27T06:36:05.019Z,619.00
2023-03-27T06:40:04.974Z,630.00
2023-03-27T06:44:04.941Z,666.00
2023-03-27T06:48:18.064Z,673.00
2023-03-27T06:52:05.851Z,676.00
2023-03-27T06:56:04.912Z,731.00
2023-03-27T07:00:04.836Z,733.00
2023-03-27T07:04:04.934Z,739.00
2023-03-27T07:08:15.078Z,785.00
2023-03-27T07:12:05.971Z,772.00
2023-03-27T07:16:05.044Z,768.00
2023-03-27T07:20:05.048Z,775.00
2023-03-27T07:24:05.425Z,800.00
2023-03-27T07:28:06.304Z,809.00
2023-03-27T09:27:16.563Z,464.00
2023-03-27T09:31:16.702Z,616.00
2023-03-27T09:35:16.635Z,740.00
2023-03-27T09:39:16.638Z,804.00
2023-03-27T09:43:16.691Z,884.00
2023-03-27T09:47:16.628Z,997.00
2023-03-27T09:51:16.341Z,1019.00
2023-03-27T09:55:16.294Z,1112.00
2023-03-27T09:59:16.254Z,1099.00
2023-03-27T10:03:16.531Z,1153.00
2023-03-27T10:07:16.198Z,1156.00
2023-03-27T10:11:16.168Z,1164.00
2023-03-27T10:15:16.110Z,1226.00
2023-03-27T10:19:16.105Z,1303.00
2023-03-27T10:23:16.209Z,1229.00
2023-03-27T10:27:15.997Z,985.00
2023-03-27T10:31:23.713Z,933.00
2023-03-27T10:35:15.976Z,802.00
2023-03-27T10:39:15.888Z,792.00
2023-03-27T10:43:15.848Z,762.00
2023-03-27T10:47:15.812Z,694.00
2023-03-27T10:51:15.997Z,694.00
2023-03-27T10:55:16.192Z,635.00
2023-03-27T10:59:16.130Z,678.00
2023-03-27T11:03:16.379Z,775.00
2023-03-27T11:07:16.534Z,837.00
2023-03-27T11:11:16.645Z,829.00
2023-03-27T11:15:16.760Z,943.00
2023-03-27T11:19:17.225Z,912.00
2023-03-27T11:23:17.231Z,912.00
2023-03-27T11:27:16.911Z,880.00
2023-03-27T11:31:17.004Z,862.00
2023-03-27T11:35:16.990Z,847.00
2023-03-27T11:39:17.045Z,837.00
2023-03-27T11:43:17.079Z,827.00
2023-03-27T11:47:17.114Z,806.00
2023-03-27T11:51:17.142Z,798.00
2023-03-27T11:55:17.180Z,795.00
2023-03-27T11:59:17.224Z,776.00
2023-03-27T12:03:17.274Z,752.00
2023-03-27T12:07:26.301Z,736.00
2023-03-27T12:11:18.208Z,717.00
2023-03-27T12:15:17.089Z,699.00
2023-03-27T12:19:28.557Z,650.00
2023-03-27T12:23:17.021Z,649.00
2023-03-27T12:27:16.986Z,635.00
2023-03-27T12:31:16.953Z,644.00
2023-03-27T12:35:21.693Z,619.00
2023-03-27T12:39:16.902Z,616.00
2023-03-27T12:43:16.892Z,620.00
2023-03-27T12:47:16.905Z,616.00
2023-03-27T12:51:16.897Z,606.00
2023-03-27T12:55:17.222Z,600.00
2023-03-27T12:59:16.832Z,597.00
2023-03-27T13:03:16.859Z,590.00
2023-03-27T13:07:17.230Z,579.00
2023-03-27T13:11:16.721Z,577.00
2023-03-27T13:15:16.667Z,567.00
2023-03-27T13:19:16.628Z,553.00
2023-03-27T13:23:16.593Z,552.00
2023-03-27T13:27:16.590Z,543.00
2023-03-27T13:31:16.641Z,535.00
2023-03-27T13:35:16.580Z,536.00
2023-03-27T13:39:16.588Z,533.00
2023-03-27T13:43:16.551Z,519.00
2023-03-27T13:47:16.573Z,513.00
2023-03-27T13:51:16.579Z,503.00
2023-03-27T13:55:16.541Z,509.00
2023-03-27T13:59:16.583Z,503.00
2023-03-27T14:03:16.745Z,498.00
2023-03-27T14:07:16.580Z,488.00
2023-03-27T14:11:16.529Z,488.00
2023-03-27T14:15:16.519Z,489.00
2023-03-27T14:19:16.522Z,482.00
2023-03-27T14:23:16.562Z,479.00
2023-03-27T14:27:16.530Z,479.00
2023-03-27T14:31:16.638Z,472.00
2023-03-27T14:35:16.651Z,472.00
2023-03-27T14:39:16.634Z,468.00
2023-03-27T14:43:16.667Z,464.00
2023-03-27T14:47:16.662Z,456.00
2023-03-27T14:51:16.707Z,455.00
2023-03-27T14:55:16.741Z,456.00
2023-03-27T14:59:16.781Z,456.00
2023-03-27T15:03:16.939Z,456.00
2023-03-27T15:07:16.853Z,452.00
2023-03-27T15:11:16.924Z,451.00
2023-03-27T15:15:16.971Z,446.00
2023-03-27T15:19:16.987Z,448.00
2023-03-27T15:23:17.029Z,450.00
2023-03-27T15:27:17.108Z,446.00
2023-03-27T15:31:17.187Z,440.00
2023-03-27T15:35:17.156Z,438.00
2023-03-27T15:39:17.172Z,438.00
2023-03-27T15:44:32.454Z,483.00
2023-03-27T15:45:32.429Z,464.00
2023-03-27T15:46:57.849Z,481.00
2023-03-27T15:47:57.807Z,474.00
2023-03-27T15:48:57.725Z,478.00
2023-03-27T15:49:57.703Z,483.00
2023-03-27T15:50:57.708Z,480.00
2023-03-27T15:51:57.703Z,477.00
2023-03-27T15:52:57.691Z,479.00
2023-03-27T15:53:57.686Z,482.00
2023-03-27T15:54:57.678Z,487.00
2023-03-27T15:55:57.920Z,485.00
2023-03-27T15:57:09.585Z,479.00
2023-03-27T15:57:58.666Z,475.00
2023-03-27T15:58:57.653Z,468.00
2023-03-27T15:59:57.737Z,461.00
2023-03-27T16:00:57.812Z,456.00
2023-03-27T16:01:57.694Z,457.00
2023-03-27T16:02:57.725Z,456.00
2023-03-27T16:03:58.973Z,456.00
2023-03-27T16:04:57.635Z,456.00
2023-03-27T16:05:57.792Z,455.00
2023-03-27T16:06:57.584Z,454.00
2023-03-27T16:07:57.562Z,454.00
2023-03-27T16:08:57.588Z,456.00
2023-03-27T16:09:57.598Z,457.00
2023-03-27T16:10:57.547Z,458.00
2023-03-27T16:11:57.563Z,455.00
2023-03-27T16:12:57.536Z,455.00
2023-03-27T16:13:57.530Z,455.00
2023-03-27T16:14:57.618Z,455.00
2023-03-27T16:15:57.748Z,455.00
2023-03-27T16:16:57.516Z,453.00
2023-03-27T16:17:57.541Z,450.00
2023-03-27T16:18:57.516Z,447.00
2023-03-27T16:19:57.552Z,445.00
2023-03-27T16:20:57.488Z,446.00
2023-03-27T16:21:57.568Z,447.00
2023-03-27T16:22:57.479Z,449.00
2023-03-27T16:23:57.485Z,451.00
2023-03-27T16:24:57.481Z,452.00
2023-03-27T16:25:57.577Z,452.00
2023-03-27T16:26:57.462Z,452.00
2023-03-27T16:27:57.457Z,450.00
2023-03-27T16:28:57.436Z,451.00
2023-03-27T16:29:57.524Z,453.00
2023-03-27T16:30:57.436Z,453.00
2023-03-27T16:31:57.528Z,451.00
2023-03-27T16:32:57.476Z,451.00
2023-03-27T16:33:57.414Z,450.00
2023-03-27T16:34:57.464Z,448.00
2023-03-27T16:35:57.701Z,452.00
2023-03-27T16:36:57.390Z,452.00
2023-03-27T16:37:57.378Z,450.00
2023-03-27T16:38:57.384Z,448.00
2023-03-27T16:39:57.433Z,446.00
2023-03-27T16:40:57.374Z,442.00
2023-03-27T16:41:57.375Z,440.00
2023-03-27T16:42:57.367Z,440.00
2023-03-27T16:43:57.341Z,441.00
2023-03-27T16:44:57.335Z,441.00
2023-03-27T16:45:57.546Z,443.00
2023-03-27T16:46:57.333Z,442.00
2023-03-27T16:47:57.374Z,443.00
2023-03-27T16:48:57.637Z,440.00
2023-03-27T16:50:10.740Z,438.00
2023-03-27T16:50:58.305Z,439.00
2023-03-27T16:51:57.318Z,437.00
2023-03-27T16:52:57.287Z,437.00
2023-03-27T16:53:57.282Z,439.00
2023-03-27T16:54:57.284Z,438.00
2023-03-27T16:55:57.477Z,436.00
2023-03-27T16:56:57.339Z,438.00
2023-03-27T16:57:57.273Z,440.00
2023-03-27T16:58:57.267Z,441.00
2023-03-27T16:59:57.254Z,440.00
2023-03-27T17:00:57.293Z,440.00
2023-03-27T17:01:57.230Z,442.00
2023-03-27T17:02:57.306Z,440.00
2023-03-27T17:03:57.231Z,438.00
2023-03-27T17:04:57.236Z,436.00
2023-03-27T17:05:57.367Z,435.00
2023-03-27T17:06:57.213Z,437.00
2023-03-27T17:07:57.181Z,438.00
2023-03-27T17:08:57.177Z,439.00
2023-03-27T17:09:57.169Z,437.00
2023-03-27T17:10:57.172Z,436.00
2023-03-27T17:11:57.177Z,440.00
2023-03-27T17:12:57.158Z,440.00
2023-03-27T17:13:57.169Z,442.00
2023-03-27T17:14:57.130Z,444.00
2023-03-27T17:15:57.534Z,443.00
2023-03-27T17:16:57.143Z,440.00
2023-03-27T17:17:57.179Z,440.00
2023-03-27T17:18:57.142Z,436.00
2023-03-27T17:19:57.180Z,435.00
2023-03-27T17:20:57.183Z,431.00
2023-03-27T17:21:57.236Z,429.00
2023-03-27T17:22:57.206Z,429.00
2023-03-27T17:23:57.231Z,431.00
2023-03-27T17:24:57.818Z,431.00
2023-03-27T17:25:57.505Z,431.00
2023-03-27T17:26:57.311Z,430.00
2023-03-27T17:27:57.311Z,431.00
2023-03-27T17:28:57.354Z,433.00
2023-03-27T17:29:57.360Z,434.00
2023-03-27T17:31:57.405Z,433.00
2023-03-27T17:32:57.391Z,433.00
2023-03-27T17:33:57.361Z,431.00
2023-03-27T17:34:57.344Z,431.00
2023-03-27T17:35:57.711Z,429.00
2023-03-27T17:36:57.357Z,428.00
2023-03-27T17:37:57.325Z,427.00
2023-03-27T17:38:57.321Z,428.00
2023-03-27T17:39:57.329Z,427.00
2023-03-27T17:40:57.306Z,425.00
2023-03-27T17:41:57.317Z,426.00
2023-03-27T17:42:57.326Z,425.00
2023-03-27T17:43:57.304Z,430.00
2023-03-27T17:44:57.280Z,429.00
2023-03-27T17:45:57.498Z,431.00
2023-03-27T17:46:57.316Z,430.00
2023-03-27T17:47:57.319Z,432.00
2023-03-27T17:48:57.277Z,430.00
2023-03-27T17:49:57.252Z,429.00
2023-03-27T17:51:08.144Z,428.00
2023-03-27T17:51:58.241Z,430.00
2023-03-27T17:52:57.235Z,430.00
2023-03-27T17:53:57.244Z,431.00
2023-03-27T17:54:58.267Z,427.00
2023-03-27T17:55:57.558Z,426.00
2023-03-27T17:56:57.499Z,425.00
2023-03-27T17:58:57.499Z,422.00
2023-03-27T17:59:57.550Z,422.00
2023-03-27T18:00:57.599Z,423.00
2023-03-27T18:01:57.598Z,422.00
2023-03-27T18:02:57.678Z,421.00
2023-03-27T18:03:57.767Z,422.00
2023-03-27T18:04:57.664Z,418.00
2023-03-27T18:05:57.885Z,417.00
2023-03-27T18:06:57.717Z,414.00
2023-03-27T18:07:57.745Z,418.00
2023-03-27T18:08:57.782Z,418.00
2023-03-27T18:09:57.806Z,420.00
2023-03-27T18:10:57.850Z,420.00
2023-03-27T18:11:57.872Z,422.00
2023-03-27T18:12:57.896Z,423.00
2023-03-27T18:13:57.909Z,423.00
2023-03-27T18:14:57.956Z,422.00
2023-03-27T18:15:58.267Z,422.00
2023-03-27T18:16:58.036Z,422.00
2023-03-27T18:17:58.117Z,422.00
2023-03-27T18:18:58.095Z,421.00
2023-03-27T18:19:58.114Z,424.00
2023-03-27T18:20:58.152Z,424.00
2023-03-27T18:21:58.166Z,420.00
2023-03-27T18:22:58.206Z,422.00
2023-03-27T18:23:58.214Z,423.00
2023-03-27T18:24:58.245Z,422.00
2023-03-27T18:25:58.511Z,424.00
2023-03-27T18:26:58.299Z,422.00
2023-03-27T18:27:58.354Z,420.00
2023-03-27T18:28:58.374Z,420.00
2023-03-27T18:29:58.399Z,422.00
2023-03-27T18:30:58.430Z,422.00
2023-03-27T18:31:58.459Z,422.00
2023-03-27T18:32:58.497Z,423.00
2023-03-27T18:33:58.533Z,422.00
2023-03-27T18:34:58.517Z,423.00
2023-03-27T18:35:58.918Z,424.00
2023-03-27T18:36:58.617Z,426.00
2023-03-27T18:37:58.600Z,423.00
2023-03-27T18:38:58.635Z,422.00
2023-03-27T18:39:58.684Z,421.00
2023-03-27T18:40:58.883Z,421.00
2023-03-27T18:41:58.771Z,420.00
2023-03-27T18:42:58.802Z,421.00
2023-03-27T18:43:58.795Z,419.00
2023-03-27T18:44:58.820Z,417.00
2023-03-27T18:45:59.066Z,419.00
2023-03-27T18:46:58.889Z,417.00
2023-03-27T18:47:58.973Z,416.00
2023-03-27T18:49:03.321Z,416.00
2023-03-27T18:49:59.977Z,416.00
2023-03-27T18:50:58.960Z,417.00
2023-03-27T18:51:58.966Z,415.00
2023-03-27T18:52:58.962Z,415.00
2023-03-27T18:53:58.944Z,414.00
2023-03-27T18:54:58.943Z,416.00
2023-03-27T18:55:59.333Z,417.00
2023-03-27T18:56:58.955Z,416.00
2023-03-27T18:57:58.906Z,415.00
2023-03-27T18:58:58.898Z,417.00
2023-03-27T18:59:58.884Z,417.00
2023-03-27T19:00:58.887Z,416.00
2023-03-27T19:01:58.958Z,416.00
2023-03-27T19:02:59.076Z,417.00
2023-03-27T19:03:58.998Z,416.00
2023-03-27T19:04:59.030Z,420.00
2023-03-27T19:05:59.405Z,421.00
2023-03-27T19:06:59.096Z,420.00
2023-03-27T19:07:59.140Z,420.00
2023-03-27T19:08:59.197Z,419.00
2023-03-27T19:09:59.202Z,419.00
2023-03-27T19:10:59.512Z,416.00
2023-03-27T19:11:59.305Z,417.00
2023-03-27T19:12:59.326Z,417.00
2023-03-27T19:13:59.388Z,418.00
2023-03-27T19:15:09.819Z,416.00
2023-03-27T19:16:00.410Z,415.00
2023-03-27T19:16:59.428Z,416.00
2023-03-27T19:17:59.439Z,416.00
2023-03-27T19:18:59.402Z,417.00
2023-03-27T19:19:59.376Z,413.00
2023-03-27T19:20:59.711Z,415.00
2023-03-27T19:21:59.366Z,413.00
2023-03-27T19:22:59.363Z,414.00
2023-03-27T19:23:59.344Z,415.00
2023-03-27T19:24:59.348Z,417.00
2023-03-27T19:25:59.360Z,420.00
2023-03-27T19:26:59.438Z,419.00
2023-03-27T19:27:59.447Z,418.00
2023-03-27T19:28:59.496Z,415.00
2023-03-27T19:29:59.537Z,410.00
2023-03-27T19:30:59.974Z,412.00
2023-03-27T19:31:59.646Z,413.00
2023-03-27T19:32:59.785Z,412.00
2023-03-27T19:33:59.723Z,415.00
2023-03-27T19:34:59.814Z,418.00
2023-03-27T19:35:59.892Z,417.00
2023-03-27T19:36:59.842Z,417.00
2023-03-27T19:37:59.889Z,412.00
2023-03-27T19:38:59.943Z,412.00
2023-03-27T19:39:59.990Z,415.00
2023-03-27T19:41:00.338Z,413.00
2023-03-27T19:42:00.072Z,414.00
2023-03-27T19:43:00.108Z,412.00
2023-03-27T19:44:00.628Z,413.00
2023-03-27T19:45:00.190Z,409.00
2023-03-27T19:46:15.011Z,409.00
2023-03-27T19:47:01.256Z,411.00
2023-03-27T19:48:00.296Z,413.00
2023-03-27T19:49:00.201Z,415.00
2023-03-27T19:50:00.209Z,414.00
2023-03-27T19:51:00.172Z,415.00
2023-03-27T19:52:00.167Z,417.00
2023-03-27T19:53:08.149Z,418.00
2023-03-27T19:54:01.158Z,419.00
2023-03-27T19:55:00.169Z,419.00
2023-03-27T19:56:00.156Z,418.00
2023-03-27T19:57:00.206Z,416.00
2023-03-27T19:58:00.153Z,418.00
2023-03-27T19:59:00.115Z,418.00
2023-03-27T20:00:00.198Z,416.00
2023-03-27T20:01:00.200Z,418.00
2023-03-27T20:02:00.264Z,418.00
2023-03-27T20:03:00.194Z,416.00
2023-03-27T20:04:00.168Z,415.00
2023-03-27T20:05:00.160Z,415.00
2023-03-27T20:06:07.566Z,414.00
2023-03-27T20:07:01.210Z,415.00
2023-03-27T20:08:00.183Z,415.00
2023-03-27T20:09:00.167Z,415.00
2023-03-27T20:10:00.187Z,413.00
2023-03-27T20:11:00.738Z,414.00
2023-03-27T20:12:00.160Z,414.00
2023-03-27T20:13:00.156Z,412.00
2023-03-27T20:14:00.146Z,412.00
2023-03-27T20:15:11.111Z,409.00
2023-03-27T20:16:01.471Z,407.00
2023-03-27T20:17:00.192Z,407.00
2023-03-27T20:18:00.216Z,408.00
2023-03-27T20:19:00.116Z,410.00
2023-03-27T20:20:00.148Z,411.00
2023-03-27T20:21:00.330Z,411.00
2023-03-27T20:22:00.134Z,412.00
2023-03-27T20:23:00.108Z,414.00
2023-03-27T20:24:00.134Z,415.00
2023-03-27T20:25:00.071Z,414.00
2023-03-27T20:26:00.355Z,416.00
2023-03-27T20:27:00.176Z,416.00
2023-03-27T20:28:00.182Z,416.00
2023-03-27T20:29:00.253Z,417.00
2023-03-27T20:30:00.304Z,417.00
2023-03-27T20:31:00.384Z,418.00
2023-03-27T20:32:00.392Z,417.00
2023-03-27T20:33:00.451Z,417.00
2023-03-27T20:34:00.469Z,419.00
2023-03-27T20:35:03.355Z,419.00
2023-03-27T20:36:01.986Z,415.00
2023-03-27T20:37:00.519Z,417.00
2023-03-27T20:38:00.510Z,417.00
2023-03-27T20:39:00.498Z,419.00
2023-03-27T20:40:00.520Z,418.00
2023-03-27T20:41:00.480Z,418.00
2023-03-27T20:42:00.474Z,419.00
2023-03-27T20:43:00.477Z,420.00
2023-03-27T20:44:00.478Z,418.00
2023-03-27T20:45:00.469Z,416.00
2023-03-27T20:46:00.810Z,415.00
2023-03-27T20:47:00.611Z,416.00
2023-03-27T20:48:00.718Z,417.00
2023-03-27T20:49:00.710Z,415.00
2023-03-27T20:50:00.741Z,415.00
2023-03-27T20:51:00.781Z,417.00
2023-03-27T20:52:00.838Z,418.00
2023-03-27T20:53:00.907Z,416.00
2023-03-27T20:54:00.937Z,415.00
2023-03-27T20:55:00.999Z,413.00
2023-03-27T20:56:01.074Z,415.00
2023-03-27T20:57:01.130Z,417.00
2023-03-27T20:58:01.163Z,417.00
2023-03-27T20:59:01.210Z,419.00
2023-03-27T21:00:01.289Z,417.00
2023-03-27T21:01:01.353Z,414.00
2023-03-27T21:02:01.412Z,415.00
2023-03-27T21:03:01.502Z,418.00
2023-03-27T21:04:01.496Z,416.00
2023-03-27T21:05:01.558Z,416.00
2023-03-27T21:06:01.607Z,415.00
2023-03-27T21:07:01.641Z,413.00
2023-03-27T21:08:01.706Z,414.00
2023-03-27T21:09:01.750Z,416.00
2023-03-27T21:10:01.839Z,412.00
2023-03-27T21:11:01.858Z,411.00
2023-03-27T21:12:01.914Z,413.00
2023-03-27T21:13:01.968Z,415.00
2023-03-27T21:14:02.023Z,414.00
2023-03-27T21:15:02.062Z,413.00
2023-03-27T21:16:02.744Z,413.00
2023-03-27T21:17:02.227Z,409.00
2023-03-27T21:18:02.263Z,411.00
2023-03-27T21:19:02.278Z,411.00
2023-03-27T21:20:02.363Z,414.00
2023-03-27T21:21:02.391Z,411.00
2023-03-27T21:22:02.428Z,409.00
2023-03-27T21:23:02.513Z,410.00
2023-03-27T21:24:02.540Z,413.00
2023-03-27T21:25:02.596Z,416.00
2023-03-27T21:26:02.645Z,417.00
2023-03-27T21:27:02.709Z,415.00
2023-03-27T21:28:02.755Z,414.00
2023-03-27T21:29:02.844Z,412.00
2023-03-27T21:30:02.881Z,411.00
2023-03-27T21:31:02.917Z,412.00
2023-03-27T21:32:03.067Z,414.00
2023-03-27T21:33:03.062Z,410.00
2023-03-27T21:34:03.108Z,409.00
2023-03-27T21:35:03.158Z,410.00
2023-03-27T21:36:03.473Z,408.00
2023-03-27T21:37:03.280Z,408.00
2023-03-27T21:38:03.314Z,408.00
2023-03-27T21:39:03.379Z,407.00
2023-03-27T21:40:03.421Z,410.00
2023-03-27T21:41:03.464Z,411.00
2023-03-27T21:42:03.516Z,411.00
2023-03-27T21:43:03.585Z,413.00
2023-03-27T21:44:03.641Z,413.00
2023-03-27T21:45:03.689Z,413.00
2023-03-27T21:46:03.974Z,411.00
2023-03-27T21:47:03.802Z,410.00
2023-03-27T21:48:03.901Z,409.00
2023-03-27T21:49:03.926Z,410.00
2023-03-27T21:50:03.970Z,413.00
2023-03-27T21:51:04.019Z,413.00
2023-03-27T21:52:04.077Z,413.00
2023-03-27T21:53:04.119Z,413.00
2023-03-27T21:54:04.182Z,414.00
2023-03-27T21:55:04.272Z,418.00
2023-03-27T21:56:04.289Z,418.00
2023-03-27T21:57:04.381Z,418.00
2023-03-27T21:58:04.395Z,418.00
2023-03-27T21:59:04.452Z,418.00
2023-03-27T22:00:04.496Z,418.00
2023-03-27T22:01:04.619Z,418.00
2023-03-27T22:02:04.616Z,417.00
2023-03-27T22:03:04.683Z,414.00
2023-03-27T22:04:04.763Z,415.00
2023-03-27T22:05:04.789Z,415.00
2023-03-27T22:06:11.808Z,415.00
2023-03-27T22:07:05.824Z,415.00
2023-03-27T22:08:04.822Z,416.00
2023-03-27T22:09:04.812Z,418.00
2023-03-27T22:10:04.791Z,418.00
2023-03-27T22:11:04.825Z,417.00
2023-03-27T22:12:04.798Z,415.00
2023-03-27T22:13:04.786Z,417.00
2023-03-27T22:14:04.763Z,415.00
2023-03-27T22:15:04.775Z,415.00
2023-03-27T22:16:04.877Z,414.00
2023-03-27T22:17:04.884Z,414.00
2023-03-27T22:18:04.985Z,415.00
2023-03-27T22:19:04.988Z,416.00
2023-03-27T22:20:05.032Z,415.00
2023-03-27T22:21:05.082Z,416.00
2023-03-27T22:22:05.124Z,416.00
2023-03-27T22:23:05.207Z,421.00
2023-03-27T22:24:05.318Z,421.00
2023-03-27T22:25:05.303Z,420.00
2023-03-27T22:26:05.339Z,417.00
2023-03-27T22:27:05.394Z,414.00
2023-03-27T22:28:05.460Z,412.00
2023-03-27T22:29:05.497Z,412.00
2023-03-27T22:30:05.543Z,414.00
2023-03-27T22:31:05.640Z,415.00
2023-03-27T22:32:05.682Z,413.00
2023-03-27T22:33:05.743Z,412.00
2023-03-27T22:34:05.763Z,412.00
2023-03-27T22:35:05.793Z,411.00
2023-03-27T22:36:06.146Z,413.00
2023-03-27T22:37:05.912Z,412.00
2023-03-27T22:38:05.951Z,415.00
2023-03-27T22:39:06.008Z,416.00
2023-03-27T22:40:06.054Z,416.00
2023-03-27T22:41:06.107Z,414.00
2023-03-27T22:42:06.173Z,409.00
2023-03-27T22:43:06.216Z,410.00
2023-03-27T22:44:06.244Z,408.00
2023-03-27T22:45:06.297Z,404.00
2023-03-27T22:46:06.411Z,405.00
2023-03-27T22:47:06.410Z,404.00
2023-03-27T22:48:06.472Z,405.00
2023-03-27T22:49:06.522Z,405.00
2023-03-27T22:50:06.558Z,406.00
2023-03-27T22:51:06.613Z,406.00
2023-03-27T22:52:06.667Z,409.00
2023-03-27T22:53:06.732Z,409.00
2023-03-27T22:54:06.782Z,407.00
2023-03-27T22:55:06.816Z,406.00
2023-03-27T22:56:06.874Z,405.00
2023-03-27T22:57:06.978Z,404.00
2023-03-27T22:58:06.976Z,405.00
2023-03-27T22:59:07.049Z,409.00
2023-03-27T23:00:07.085Z,409.00
2023-03-27T23:01:07.160Z,408.00
2023-03-27T23:02:07.278Z,407.00
2023-03-27T23:03:07.405Z,408.00
2023-03-27T23:04:07.322Z,409.00
2023-03-27T23:05:07.371Z,411.00
2023-03-27T23:06:07.442Z,412.00
2023-03-27T23:07:07.474Z,412.00
2023-03-27T23:08:07.524Z,414.00
2023-03-27T23:09:07.569Z,415.00
2023-03-27T23:10:07.642Z,413.00
2023-03-27T23:11:07.702Z,411.00
2023-03-27T23:12:07.733Z,406.00
2023-03-27T23:13:07.795Z,407.00
2023-03-27T23:14:07.844Z,408.00
2023-03-27T23:15:07.878Z,410.00
2023-03-27T23:16:07.955Z,410.00
2023-03-27T23:17:08.036Z,413.00
2023-03-27T23:18:08.081Z,413.00
2023-03-27T23:19:08.215Z,414.00
2023-03-27T23:20:08.162Z,412.00
2023-03-27T23:21:08.216Z,411.00
2023-03-27T23:22:08.253Z,412.00
2023-03-27T23:23:08.319Z,413.00
2023-03-27T23:24:08.377Z,413.00
2023-03-27T23:25:08.427Z,411.00
2023-03-27T23:26:08.488Z,412.00
2023-03-27T23:27:08.599Z,411.00
2023-03-27T23:28:08.570Z,411.00
2023-03-27T23:29:08.632Z,411.00
2023-03-27T23:30:08.702Z,411.00
2023-03-27T23:31:08.746Z,409.00
2023-03-27T23:32:08.872Z,408.00
2023-03-27T23:33:08.879Z,408.00
2023-03-27T23:34:08.913Z,410.00
2023-03-27T23:35:08.951Z,409.00
2023-03-27T23:36:09.071Z,411.00
2023-03-27T23:37:09.075Z,412.00
2023-03-27T23:38:09.101Z,411.00
2023-03-27T23:39:09.161Z,407.00
2023-03-27T23:40:09.218Z,408.00
2023-03-27T23:41:09.263Z,407.00
2023-03-27T23:42:09.327Z,409.00
2023-03-27T23:43:09.382Z,408.00
2023-03-27T23:44:09.433Z,408.00
2023-03-27T23:45:09.468Z,408.00
2023-03-27T23:46:09.577Z,409.00
2023-03-27T23:47:09.588Z,408.00
2023-03-27T23:48:09.646Z,408.00
2023-03-27T23:49:09.683Z,408.00
2023-03-27T23:50:09.733Z,408.00
2023-03-27T23:51:09.783Z,408.00
2023-03-27T23:52:09.842Z,408.00
2023-03-27T23:53:09.887Z,408.00
2023-03-27T23:54:09.938Z,408.00
2023-03-27T23:55:09.994Z,407.00
2023-03-27T23:56:10.082Z,406.00
2023-03-27T23:57:10.169Z,406.00
2023-03-27T23:58:10.183Z,408.00
2023-03-27T23:59:10.239Z,408.00
